Andrews, Indiana
Current Conditions -  °F | °C
As of 10:54 AM on Friday 31 Oct 2014 (Local Time) from KFWA Reporting Station
Light Rain Light Rain  
Wind Chill: 33°   Ceiling: 3800
Heat Index: 40°   Visibility: 9mi
Dew Point: 36°   Wind: 12mph
Humidity: 86%   Direction: 310°NW
Pressure: 29.95"   Gusts: NA
Location:  40.86°N, 85.6°W
Report Text: KFWA 311454Z 31010KT 9SM -RA SCT015 OVC038 04/02 A2995 RMK AO2 SLP148 P0002 60006 T00440022 50002
Loading
Personal Weather Stations






























Interactive Weather Map
Tropical Storm Tracking
New forecast layout! Learn more

10-Day Weather Forecast

Advertisements
Track Severe Weather on mobile